Strona główna
METAR-TAF:

METAR-TAF

Lotnisko :

Port lotniczy Bahrajn

Bahrajn, Bahrajn

Szerokość geograficzna: 26-16N, Długość geograficzna: 050-39E, wysokość: 2 m

Aktualna obserwacja pogody

Raport powstał 20 minut temu, godzina 07:00 UTC
Wiatr 9 kt od północno-północny wschód, zmienny między północ i wschodnio-północny wschód
Temperatura 25°C
Wilgotność 50%
Ciśnienie 1017 hPa
Widzialność 10 km lub więcej
Brak chmur poniżej 1500 m i brak chmur cumulonimbus

METAR: OBBI 100700Z 02009KT 350V070 CAVOK 25/14 Q1017 NOSIG

czas: 10:20 (07:20 UTC)

Prognoza

Raport powstał 2 godziny i 20 minut temu, godzina 05:00 UTC
Prognoza ważna od 10 godzina 06 UTC do 11 godzina 12 UTC
Wiatr 10 kt od północ
Widzialność 10 km lub więcej
Brak chmur poniżej 1500 m i brak chmur cumulonimbus
Stopniowe zmiany
od 10 godzina 20 UTC do 10 godzina 22 UTC
Wiatr 13 kt od północ w porywach dochodzący do 23 kt
Rozproszone chmury na wysokości 2500 ft

TAF: OBBI 100500Z 1006/1112 01010KT CAVOK BECMG 1020/1022 35013G23KT SCT025

Obserwacja i prognoza pogody dla ponad 4000 lotnisk (raport METAR i TAF).

Dostępne stacje oznaczono żółtymi i czerwonymi punktami na mapie.

Najedź kursorem aby zobaczyć nazwę stacji.

Kliknij aby zobaczyć obserwacje i prognozy pogody.

Aby zmienić mapę: kliknij na zielony przycisk z czarnym krzyżykiem, aby powiększyć; na zielony przycisk z myślnikiem, aby pomniejszyć; na zielone strzałki, aby przejść do map sąsiednich.


METAR-TAF: